Time,TemperatureF,DewpointF,PressureIn,WindDirection,WindDirectionDegrees,WindSpeedMPH,WindSpeedGustMPH,Humidity,HourlyPrecipIn,Conditions,Clouds,dailyrainin,SoftwareType,DateUTC
2013-01-30 00:10:00,51.4,43.0,30.25,SSE,148,0.0,3.0,72,0.00,,,0.00,weatherlink.com 1.10,2013-01-30 08:10:00,
2013-01-30 00:25:00,50.8,42.0,30.25,South,169,1.0,2.0,73,0.00,,,0.00,weatherlink.com 1.10,2013-01-30 08:25:00,
2013-01-30 00:40:00,48.6,42.0,30.24,North,359,0.0,2.0,77,0.00,,,0.00,weatherlink.com 1.10,2013-01-30 08:40:00,
2013-01-30 00:55:00,49.4,42.0,30.24,South,175,0.0,1.0,75,0.00,,,0.00,weatherlink.com 1.10,2013-01-30 08:55:00,
2013-01-30 01:10:00,47.3,41.0,30.25,South,175,0.0,0.0,79,0.00,,,0.00,weatherlink.com 1.10,2013-01-30 09:10:00,
2013-01-30 01:25:00,46.2,41.0,30.25,South,173,0.0,0.0,82,0.00,,,0.00,weatherlink.com 1.10,2013-01-30 09:25:00,
2013-01-30 01:40:00,46.0,41.0,30.25,ENE,70,0.0,0.0,83,0.00,,,0.00,weatherlink.com 1.10,2013-01-30 09:40:00,
2013-01-30 01:55:00,45.2,41.0,30.25,ENE,70,0.0,0.0,84,0.00,,,0.00,weatherlink.com 1.10,2013-01-30 09:55:00,
2013-01-30 02:10:00,44.2,40.0,30.25,NE,49,0.0,0.0,85,0.00,,,0.00,weatherlink.com 1.10,2013-01-30 10:10:00,
2013-01-30 02:25:00,43.5,40.0,30.25,NE,49,0.0,0.0,86,0.00,,,0.00,weatherlink.com 1.10,2013-01-30 10:25:00,
2013-01-30 02:40:00,43.0,39.0,30.26,NE,49,0.0,0.0,87,0.00,,,0.00,weatherlink.com 1.10,2013-01-30 10:40:00,
2013-01-30 02:55:00,42.3,39.0,30.25,NE,49,0.0,0.0,88,0.00,,,0.00,weatherlink.com 1.10,2013-01-30 10:55:00,
2013-01-30 03:10:00,41.8,39.0,30.25,NE,49,0.0,0.0,89,0.00,,,0.00,weatherlink.com 1.10,2013-01-30 11:10:00,
2013-01-30 03:25:00,41.4,38.0,30.25,NE,49,0.0,0.0,89,0.00,,,0.00,weatherlink.com 1.10,2013-01-30 11:25:00,
2013-01-30 03:40:00,40.7,38.0,30.25,NE,49,0.0,0.0,91,0.00,,,0.00,weatherlink.com 1.10,2013-01-30 11:40:00,
2013-01-30 03:55:00,40.6,38.0,30.24,NE,49,0.0,0.0,91,0.00,,,0.00,weatherlink.com 1.10,2013-01-30 11:55:00,
2013-01-30 04:10:00,40.1,38.0,30.24,NE,49,0.0,0.0,91,0.00,,,0.00,weatherlink.com 1.10,2013-01-30 12:10:00,
2013-01-30 04:25:00,39.7,38.0,30.24,NE,49,0.0,0.0,92,0.00,,,0.00,weatherlink.com 1.10,2013-01-30 12:25:00,
2013-01-30 04:40:00,39.4,38.0,30.24,NE,49,0.0,0.0,93,0.00,,,0.00,weatherlink.com 1.10,2013-01-30 12:40:00,
2013-01-30 04:55:00,39.4,37.0,30.24,NE,49,0.0,0.0,92,0.00,,,0.00,weatherlink.com 1.10,2013-01-30 12:55:00,
2013-01-30 05:10:00,39.1,37.0,30.24,NE,49,0.0,0.0,93,0.00,,,0.00,weatherlink.com 1.10,2013-01-30 13:10:00,
2013-01-30 05:26:00,38.7,37.0,30.24,NE,49,0.0,0.0,93,0.00,,,0.00,weatherlink.com 1.10,2013-01-30 13:26:00,
2013-01-30 05:41:00,38.6,37.0,30.25,NE,49,0.0,0.0,94,0.00,,,0.00,weatherlink.com 1.10,2013-01-30 13:41:00,
2013-01-30 05:56:00,38.3,37.0,30.25,NE,49,0.0,0.0,93,0.00,,,0.00,weatherlink.com 1.10,2013-01-30 13:56:00,
2013-01-30 06:11:00,37.9,36.0,30.25,NE,49,0.0,0.0,94,0.00,,,0.00,weatherlink.com 1.10,2013-01-30 14:11:00,
2013-01-30 06:26:00,37.9,36.0,30.25,NE,49,0.0,0.0,94,0.00,,,0.00,weatherlink.com 1.10,2013-01-30 14:26:00,
2013-01-30 06:41:00,37.7,36.0,30.26,NE,49,0.0,0.0,94,0.00,,,0.00,weatherlink.com 1.10,2013-01-30 14:41:00,
2013-01-30 06:56:00,37.6,36.0,30.27,NE,49,0.0,0.0,94,0.00,,,0.00,weatherlink.com 1.10,2013-01-30 14:56:00,
2013-01-30 07:11:00,37.2,36.0,30.27,NE,49,0.0,0.0,94,0.00,,,0.00,weatherlink.com 1.10,2013-01-30 15:11:00,
2013-01-30 07:26:00,37.6,36.0,30.27,NE,49,0.0,0.0,95,0.00,,,0.00,weatherlink.com 1.10,2013-01-30 15:26:00,
2013-01-30 07:41:00,37.7,36.0,30.28,NE,49,0.0,0.0,95,0.00,,,0.00,weatherlink.com 1.10,2013-01-30 15:41:00,
2013-01-30 07:56:00,38.1,37.0,30.28,NE,49,0.0,0.0,95,0.00,,,0.00,weatherlink.com 1.10,2013-01-30 15:56:00,
2013-01-30 08:11:00,38.9,38.0,30.29,NE,49,0.0,0.0,96,0.00,,,0.00,weatherlink.com 1.10,2013-01-30 16:11:00,
2013-01-30 08:26:00,40.0,39.0,30.29,NE,49,0.0,0.0,96,0.00,,,0.00,weatherlink.com 1.10,2013-01-30 16:26:00,
2013-01-30 08:41:00,41.7,41.0,30.29,NE,49,0.0,0.0,96,0.00,,,0.00,weatherlink.com 1.10,2013-01-30 16:41:00,
2013-01-30 08:56:00,43.9,43.0,30.29,NE,49,0.0,0.0,96,0.00,,,0.00,weatherlink.com 1.10,2013-01-30 16:56:00,
2013-01-30 09:11:00,46.7,44.0,30.30,SSE,153,0.0,0.0,89,0.00,,,0.00,weatherlink.com 1.10,2013-01-30 17:11:00,
2013-01-30 09:26:00,48.4,44.0,30.30,WSW,246,0.0,1.0,85,0.00,,,0.00,weatherlink.com 1.10,2013-01-30 17:26:00,
2013-01-30 09:41:00,50.0,45.0,30.30,South,170,0.0,0.0,82,0.00,,,0.00,weatherlink.com 1.10,2013-01-30 17:41:00,
2013-01-30 09:56:00,51.4,45.0,30.30,South,177,0.0,1.0,78,0.00,,,0.00,weatherlink.com 1.10,2013-01-30 17:56:00,
2013-01-30 10:11:00,53.0,45.0,30.30,SSE,165,0.0,1.0,75,0.00,,,0.00,weatherlink.com 1.10,2013-01-30 18:11:00,
2013-01-30 10:26:00,54.7,46.0,30.30,SW,226,0.0,1.0,73,0.00,,,0.00,weatherlink.com 1.10,2013-01-30 18:26:00,
2013-01-30 10:41:00,56.4,46.0,30.30,SSE,167,0.0,2.0,68,0.00,,,0.00,weatherlink.com 1.10,2013-01-30 18:41:00,
2013-01-30 10:56:00,57.6,47.0,30.30,NE,41,0.0,1.0,67,0.00,,,0.00,weatherlink.com 1.10,2013-01-30 18:56:00,
2013-01-30 11:11:00,58.9,47.0,30.30,SSE,155,0.0,1.0,64,0.00,,,0.00,weatherlink.com 1.10,2013-01-30 19:11:00,
2013-01-30 11:26:00,60.7,47.0,30.29,ESE,123,0.0,2.0,60,0.00,,,0.00,weatherlink.com 1.10,2013-01-30 19:26:00,
2013-01-30 11:41:00,61.6,46.0,30.28,NNE,20,0.0,1.0,57,0.00,,,0.00,weatherlink.com 1.10,2013-01-30 19:41:00,
2013-01-30 11:56:00,62.5,46.0,30.27,SW,234,0.0,1.0,55,0.00,,,0.00,weatherlink.com 1.10,2013-01-30 19:56:00,
2013-01-30 12:12:00,64.1,45.0,30.27,SSE,163,0.0,2.0,51,0.00,,,0.00,weatherlink.com 1.10,2013-01-30 20:12:00,
2013-01-30 12:27:00,64.7,45.0,30.26,SW,236,0.0,1.0,50,0.00,,,0.00,weatherlink.com 1.10,2013-01-30 20:27:00,
2013-01-30 12:42:00,65.7,46.0,30.26,SW,229,0.0,1.0,49,0.00,,,0.00,weatherlink.com 1.10,2013-01-30 20:42:00,
2013-01-30 12:57:00,66.8,46.0,30.25,East,84,1.0,2.0,47,0.00,,,0.00,weatherlink.com 1.10,2013-01-30 20:57:00,
2013-01-30 13:12:00,66.1,46.0,30.25,ENE,65,0.0,3.0,49,0.00,,,0.00,weatherlink.com 1.10,2013-01-30 21:12:00,
2013-01-30 13:27:00,66.3,46.0,30.24,NE,37,0.0,2.0,49,0.00,,,0.00,weatherlink.com 1.10,2013-01-30 21:27:00,
2013-01-30 13:42:00,66.6,47.0,30.23,NNW,330,0.0,4.0,49,0.00,,,0.00,weatherlink.com 1.10,2013-01-30 21:42:00,
2013-01-30 13:57:00,66.3,45.0,30.23,NE,44,1.0,3.0,47,0.00,,,0.00,weatherlink.com 1.10,2013-01-30 21:57:00,
2013-01-30 14:12:00,65.9,44.0,30.23,NE,45,0.0,3.0,46,0.00,,,0.00,weatherlink.com 1.10,2013-01-30 22:12:00,
2013-01-30 14:27:00,66.3,45.0,30.23,ENE,63,2.0,4.0,46,0.00,,,0.00,weatherlink.com 1.10,2013-01-30 22:27:00,
2013-01-30 14:42:00,66.7,45.0,30.22,ENE,63,0.0,1.0,45,0.00,,,0.00,weatherlink.com 1.10,2013-01-30 22:42:00,
2013-01-30 14:57:00,67.2,44.0,30.22,SW,233,0.0,1.0,43,0.00,,,0.00,weatherlink.com 1.10,2013-01-30 22:57:00,
2013-01-30 15:12:00,67.5,44.0,30.22,East,91,0.0,1.0,43,0.00,,,0.00,weatherlink.com 1.10,2013-01-30 23:12:00,
2013-01-30 15:27:00,66.9,44.0,30.22,NE,46,0.0,2.0,43,0.00,,,0.00,weatherlink.com 1.10,2013-01-30 23:27:00,
2013-01-30 15:42:00,64.3,43.0,30.21,NE,50,1.0,2.0,46,0.00,,,0.00,weatherlink.com 1.10,2013-01-30 23:42:00,
2013-01-30 15:57:00,62.6,42.0,30.22,NNW,336,0.0,3.0,48,0.00,,,0.00,weatherlink.com 1.10,2013-01-30 23:57:00,
2013-01-30 16:12:00,61.7,42.0,30.22,ENE,60,0.0,1.0,48,0.00,,,0.00,weatherlink.com 1.10,2013-01-31 00:12:00,
2013-01-30 16:27:00,59.8,42.0,30.22,ENE,61,0.0,0.0,52,0.00,,,0.00,weatherlink.com 1.10,2013-01-31 00:27:00,
2013-01-30 16:42:00,57.9,43.0,30.22,ENE,61,0.0,0.0,58,0.00,,,0.00,weatherlink.com 1.10,2013-01-31 00:42:00,
2013-01-30 16:57:00,55.5,42.0,30.22,ENE,61,0.0,1.0,61,0.00,,,0.00,weatherlink.com 1.10,2013-01-31 00:57:00,
2013-01-30 17:12:00,53.9,43.0,30.22,ENE,61,0.0,0.0,67,0.00,,,0.00,weatherlink.com 1.10,2013-01-31 01:12:00,
2013-01-30 17:27:00,52.4,43.0,30.22,ENE,61,0.0,0.0,71,0.00,,,0.00,weatherlink.com 1.10,2013-01-31 01:27:00,
2013-01-30 17:42:00,51.1,43.0,30.22,NE,56,0.0,0.0,75,0.00,,,0.00,weatherlink.com 1.10,2013-01-31 01:42:00,
2013-01-30 17:57:00,49.7,42.0,30.22,NE,56,0.0,0.0,76,0.00,,,0.00,weatherlink.com 1.10,2013-01-31 01:57:00,
2013-01-30 18:12:00,48.7,42.0,30.23,NE,52,0.0,0.0,78,0.00,,,0.00,weatherlink.com 1.10,2013-01-31 02:12:00,
2013-01-30 18:27:00,48.0,42.0,30.23,NE,52,0.0,0.0,80,0.00,,,0.00,weatherlink.com 1.10,2013-01-31 02:27:00,
2013-01-30 18:42:00,47.4,42.0,30.23,NE,52,0.0,0.0,82,0.00,,,0.00,weatherlink.com 1.10,2013-01-31 02:42:00,
2013-01-30 18:57:00,46.9,42.0,30.22,NE,52,0.0,0.0,84,0.00,,,0.00,weatherlink.com 1.10,2013-01-31 02:57:00,
2013-01-30 19:12:00,46.1,42.0,30.23,NE,52,0.0,0.0,85,0.00,,,0.00,weatherlink.com 1.10,2013-01-31 03:12:00,
2013-01-30 19:27:00,45.6,42.0,30.23,NE,52,0.0,0.0,86,0.00,,,0.00,weatherlink.com 1.10,2013-01-31 03:27:00,
2013-01-30 19:42:00,44.9,42.0,30.23,NE,52,0.0,0.0,88,0.00,,,0.00,weatherlink.com 1.10,2013-01-31 03:42:00,
2013-01-30 19:57:00,44.4,41.0,30.23,NE,52,0.0,0.0,88,0.00,,,0.00,weatherlink.com 1.10,2013-01-31 03:57:00,
2013-01-30 20:12:00,44.0,41.0,30.24,NE,52,0.0,0.0,89,0.00,,,0.00,weatherlink.com 1.10,2013-01-31 04:12:00,
2013-01-30 20:27:00,43.6,41.0,30.24,NE,52,0.0,0.0,89,0.00,,,0.00,weatherlink.com 1.10,2013-01-31 04:27:00,
2013-01-30 20:42:00,43.1,40.0,30.23,NE,52,0.0,0.0,90,0.00,,,0.00,weatherlink.com 1.10,2013-01-31 04:42:00,
2013-01-30 20:57:00,42.8,40.0,30.23,NE,52,0.0,0.0,91,0.00,,,0.00,weatherlink.com 1.10,2013-01-31 04:57:00,
2013-01-30 21:12:00,42.4,40.0,30.23,NE,52,0.0,0.0,92,0.00,,,0.00,weatherlink.com 1.10,2013-01-31 05:12:00,
2013-01-30 21:27:00,42.4,40.0,30.23,NE,52,0.0,0.0,92,0.00,,,0.00,weatherlink.com 1.10,2013-01-31 05:27:00,
2013-01-30 21:42:00,42.2,40.0,30.24,NE,52,0.0,0.0,93,0.00,,,0.00,weatherlink.com 1.10,2013-01-31 05:42:00,
2013-01-30 21:57:00,42.1,40.0,30.23,NE,52,0.0,0.0,93,0.00,,,0.00,weatherlink.com 1.10,2013-01-31 05:57:00,
2013-01-30 22:12:00,41.7,40.0,30.24,NE,52,0.0,0.0,93,0.00,,,0.00,weatherlink.com 1.10,2013-01-31 06:12:00,
2013-01-30 22:27:00,41.3,40.0,30.23,NE,52,0.0,0.0,93,0.00,,,0.00,weatherlink.com 1.10,2013-01-31 06:27:00,
2013-01-30 22:42:00,41.3,40.0,30.23,NE,52,0.0,0.0,94,0.00,,,0.00,weatherlink.com 1.10,2013-01-31 06:42:00,
2013-01-30 22:57:00,40.9,39.0,30.24,NE,52,0.0,0.0,94,0.00,,,0.00,weatherlink.com 1.10,2013-01-31 06:57:00,
2013-01-30 23:12:00,40.7,39.0,30.24,NE,52,0.0,0.0,94,0.00,,,0.00,weatherlink.com 1.10,2013-01-31 07:12:00,
2013-01-30 23:27:00,40.4,39.0,30.24,NE,52,0.0,0.0,94,0.00,,,0.00,weatherlink.com 1.10,2013-01-31 07:27:00,
2013-01-30 23:42:00,40.2,39.0,30.25,NE,52,0.0,0.0,94,0.00,,,0.00,weatherlink.com 1.10,2013-01-31 07:42:00,
2013-01-30 23:57:00,39.9,38.0,30.25,NE,52,0.0,0.0,94,0.00,,,0.00,weatherlink.com 1.10,2013-01-31 07:57:00,